createdAt,value
2023-05-21T00:21:25.749Z,1002.79
2023-05-21T00:22:25.915Z,1002.80
2023-05-21T00:23:26.280Z,1002.79
2023-05-21T00:24:31.671Z,1002.81
2023-05-21T00:25:26.805Z,1002.80
2023-05-21T00:26:27.067Z,1002.77
2023-05-21T00:27:29.703Z,1002.78
2023-05-21T00:28:27.333Z,1002.75
2023-05-21T00:29:27.525Z,1002.76
2023-05-21T00:30:28.665Z,1002.79
2023-05-21T00:31:27.880Z,1002.80
2023-05-21T00:32:33.162Z,1002.75
2023-05-21T00:33:32.449Z,1002.81
2023-05-21T00:34:34.422Z,1002.81
2023-05-21T00:35:31.897Z,1002.83
2023-05-21T00:36:31.536Z,1002.77
2023-05-21T00:37:34.940Z,1002.79
2023-05-21T00:38:31.182Z,1002.71
2023-05-21T00:39:33.442Z,1002.74
2023-05-21T00:40:33.183Z,1002.75
2023-05-21T00:41:33.506Z,1002.72
2023-05-21T00:42:31.152Z,1002.74
2023-05-21T00:43:31.421Z,1002.69
2023-05-21T00:44:31.574Z,1002.69
2023-05-21T00:45:34.344Z,1002.67
2023-05-21T00:46:34.611Z,1002.63
2023-05-21T00:47:35.879Z,1002.58
2023-05-21T00:48:35.069Z,1002.60
2023-05-21T00:49:32.842Z,1002.58
2023-05-21T00:50:32.984Z,1002.56
2023-05-21T00:51:33.716Z,1002.62
2023-05-21T00:52:34.021Z,1002.66
2023-05-21T00:53:36.448Z,1002.67
2023-05-21T00:54:36.122Z,1002.63
2023-05-21T00:55:36.326Z,1002.62
2023-05-21T00:56:36.633Z,1002.62
2023-05-21T00:57:34.799Z,1002.59
2023-05-21T00:58:34.995Z,1002.54
2023-05-21T00:59:35.157Z,1002.52
2023-05-21T01:00:35.384Z,1002.51
2023-05-21T01:01:35.594Z,1002.48
2023-05-21T01:02:36.860Z,1002.50
2023-05-21T01:03:38.936Z,1002.57
2023-05-21T01:05:03.569Z,1002.57
2023-05-21T01:05:39.264Z,1002.50
2023-05-21T01:06:39.607Z,1002.42
2023-05-21T01:07:36.798Z,1002.51
2023-05-21T01:08:36.997Z,1002.50
2023-05-21T01:09:37.203Z,1002.47
2023-05-21T01:10:37.351Z,1002.49
2023-05-21T01:11:37.475Z,1002.52
2023-05-21T01:12:39.606Z,1002.49
2023-05-21T01:13:40.817Z,1002.55
2023-05-21T01:14:41.318Z,1002.51
2023-05-21T01:15:38.516Z,1002.48
2023-05-21T01:16:38.746Z,1002.51
2023-05-21T01:17:39.963Z,1002.50
2023-05-21T01:18:39.232Z,1002.57
2023-05-21T01:19:42.539Z,1002.50
2023-05-21T01:20:39.976Z,1002.64
2023-05-21T01:21:40.151Z,1002.54
2023-05-21T01:22:42.896Z,1002.53
2023-05-21T01:23:41.621Z,1002.51
2023-05-21T01:24:41.739Z,1002.52
2023-05-21T01:25:43.465Z,1002.54
2023-05-21T01:26:43.669Z,1002.45
2023-05-21T01:27:43.892Z,1002.44
2023-05-21T01:28:41.569Z,1002.43
2023-05-21T01:29:43.649Z,1002.42
2023-05-21T01:30:42.878Z,1002.45
2023-05-21T01:31:42.102Z,1002.39
2023-05-21T01:32:44.287Z,1002.38
2023-05-21T01:33:44.228Z,1002.39
2023-05-21T01:34:48.406Z,1002.30
2023-05-21T01:35:43.155Z,1002.32
2023-05-21T01:36:45.310Z,1002.38
2023-05-21T01:37:45.998Z,1002.33
2023-05-21T01:38:43.732Z,1002.34
2023-05-21T01:39:43.966Z,1002.33
2023-05-21T01:40:44.274Z,1002.33
2023-05-21T01:41:46.088Z,1002.35
2023-05-21T01:42:47.318Z,1002.34
2023-05-21T01:43:46.400Z,1002.32
2023-05-21T01:44:46.916Z,1002.35
2023-05-21T01:45:45.172Z,1002.36
2023-05-21T01:46:45.558Z,1002.39
2023-05-21T01:47:47.627Z,1002.37
2023-05-21T01:48:46.816Z,1002.32
2023-05-21T01:49:45.999Z,1002.37
2023-05-21T01:50:48.643Z,1002.32
2023-05-21T01:51:49.033Z,1002.30
2023-05-21T01:52:46.753Z,1002.32
2023-05-21T01:53:46.997Z,1002.33
2023-05-21T01:54:47.206Z,1002.27
2023-05-21T01:55:48.404Z,1002.27
2023-05-21T01:56:49.329Z,1002.29
2023-05-21T01:57:50.506Z,1002.35
2023-05-21T01:58:50.701Z,1002.40
2023-05-21T01:59:48.987Z,1002.37
2023-05-21T02:00:51.134Z,1002.34
2023-05-21T02:01:51.354Z,1002.29
2023-05-21T02:02:51.396Z,1002.32
2023-05-21T02:03:51.011Z,1002.29
2023-05-21T02:04:50.351Z,1002.34
2023-05-21T02:05:52.083Z,1002.26
2023-05-21T02:06:52.262Z,1002.32
2023-05-21T02:07:49.932Z,1002.28
2023-05-21T02:08:51.182Z,1002.26
2023-05-21T02:09:52.890Z,1002.24
2023-05-21T02:10:53.286Z,1002.28
2023-05-21T02:11:50.969Z,1002.34
2023-05-21T02:12:52.243Z,1002.32
2023-05-21T02:13:52.457Z,1002.31
2023-05-21T02:14:51.703Z,1002.33
2023-05-21T02:15:53.025Z,1002.31
2023-05-21T02:16:52.243Z,1002.29
2023-05-21T02:17:52.435Z,1002.29
2023-05-21T02:18:55.373Z,1002.28
2023-05-21T02:19:53.063Z,1002.30
2023-05-21T02:20:55.780Z,1002.25
2023-05-21T02:21:53.463Z,1002.28
2023-05-21T02:22:53.635Z,1002.28
2023-05-21T02:23:56.592Z,1002.28
2023-05-21T02:24:54.319Z,1002.26
2023-05-21T02:25:57.605Z,1002.24
2023-05-21T02:26:54.839Z,1002.28
2023-05-21T02:27:58.029Z,1002.24
2023-05-21T02:28:56.385Z,1002.27
2023-05-21T02:29:56.588Z,1002.20
2023-05-21T02:30:58.693Z,1002.26
2023-05-21T02:31:56.794Z,1002.23
2023-05-21T02:32:58.589Z,1002.25
2023-05-21T02:33:57.444Z,1002.30
2023-05-21T02:34:58.634Z,1002.32
2023-05-21T02:35:58.050Z,1002.26
2023-05-21T02:36:59.400Z,1002.28
2023-05-21T02:37:57.985Z,1002.30
2023-05-21T02:38:59.660Z,1002.29
2023-05-21T02:39:57.514Z,1002.30
2023-05-21T02:40:57.807Z,1002.26
2023-05-21T02:41:57.971Z,1002.25
2023-05-21T02:42:58.157Z,1002.33
2023-05-21T02:44:00.390Z,1002.28
2023-05-21T02:45:00.999Z,1002.37
2023-05-21T02:46:00.670Z,1002.34
2023-05-21T02:46:59.838Z,1002.32
2023-05-21T02:48:00.094Z,1002.30
2023-05-21T02:49:01.828Z,1002.31
2023-05-21T02:50:02.002Z,1002.29
2023-05-21T02:51:02.212Z,1002.33
2023-05-21T02:51:59.886Z,1002.32
2023-05-21T02:53:02.545Z,1002.29
2023-05-21T02:54:01.690Z,1002.26
2023-05-21T02:55:01.295Z,1002.25
2023-05-21T02:56:00.543Z,1002.22
2023-05-21T02:57:03.246Z,1002.24
2023-05-21T02:58:02.866Z,1002.27
2023-05-21T02:59:04.066Z,1002.21
2023-05-21T03:00:01.597Z,1002.22
2023-05-21T03:01:01.312Z,1002.21
2023-05-21T03:02:01.573Z,1002.27
2023-05-21T03:03:05.033Z,1002.22
2023-05-21T03:04:04.731Z,1002.22
2023-05-21T03:05:07.269Z,1002.20
2023-05-21T03:06:02.426Z,1002.26
2023-05-21T03:07:02.671Z,1002.25
2023-05-21T03:08:02.914Z,1002.22
2023-05-21T03:09:04.122Z,1002.21
2023-05-21T03:10:03.366Z,1002.19
2023-05-21T03:11:04.983Z,1002.23
2023-05-21T03:12:04.586Z,1002.16
2023-05-21T03:13:03.913Z,1002.27
2023-05-21T03:14:06.672Z,1002.18
2023-05-21T03:15:06.632Z,1002.14
2023-05-21T03:16:04.832Z,1002.14
2023-05-21T03:17:06.463Z,1002.19
2023-05-21T03:18:07.863Z,1002.12
2023-05-21T03:19:05.626Z,1002.19
2023-05-21T03:20:06.806Z,1002.15
2023-05-21T03:21:06.043Z,1002.20
2023-05-21T03:22:06.295Z,1002.16
2023-05-21T03:23:09.000Z,1002.16
2023-05-21T03:24:06.749Z,1002.20
2023-05-21T03:25:09.033Z,1002.18
2023-05-21T03:26:08.154Z,1002.15
2023-05-21T03:27:08.357Z,1002.19
2023-05-21T03:28:09.142Z,1002.15
2023-05-21T03:29:10.360Z,1002.16
2023-05-21T03:30:09.108Z,1002.18
2023-05-21T03:31:09.413Z,1002.16
2023-05-21T03:32:09.655Z,1002.19
2023-05-21T03:33:10.503Z,1002.19
2023-05-21T03:34:09.570Z,1002.23
2023-05-21T03:35:09.881Z,1002.18
2023-05-21T03:36:12.656Z,1002.13
2023-05-21T03:37:10.440Z,1002.17
2023-05-21T03:38:10.830Z,1002.23
2023-05-21T03:39:12.043Z,1002.16
2023-05-21T03:40:13.187Z,1002.17
2023-05-21T03:41:11.325Z,1002.17
2023-05-21T03:42:11.512Z,1002.14
2023-05-21T03:43:13.680Z,1002.15
2023-05-21T03:44:11.985Z,1002.14
2023-05-21T03:45:14.620Z,1002.15
2023-05-21T03:46:13.192Z,1002.12
2023-05-21T03:47:12.455Z,1002.15
2023-05-21T03:48:12.695Z,1002.13
2023-05-21T03:49:15.486Z,1002.12
2023-05-21T03:50:14.171Z,1002.11
2023-05-21T03:51:13.408Z,1002.11
2023-05-21T03:52:13.612Z,1002.17
2023-05-21T03:53:13.871Z,1002.14
2023-05-21T03:54:17.100Z,1002.18
2023-05-21T03:55:16.758Z,1002.17
2023-05-21T03:56:16.924Z,1002.15
2023-05-21T03:57:14.595Z,1002.20
2023-05-21T03:58:14.948Z,1002.20
2023-05-21T03:59:17.593Z,1002.17
2023-05-21T04:00:16.270Z,1002.19
2023-05-21T04:01:16.488Z,1002.24
2023-05-21T04:02:15.875Z,1002.22
2023-05-21T04:03:17.450Z,1002.24
2023-05-21T04:04:17.901Z,1002.21
2023-05-21T04:05:17.652Z,1002.29
2023-05-21T04:06:16.855Z,1002.28
2023-05-21T04:07:19.521Z,1002.20
2023-05-21T04:08:18.453Z,1002.25
2023-05-21T04:09:20.097Z,1002.33
2023-05-21T04:10:18.751Z,1002.31
2023-05-21T04:11:20.576Z,1002.23
2023-05-21T04:12:18.481Z,1002.30
2023-05-21T04:13:21.219Z,1002.27
2023-05-21T04:14:20.937Z,1002.25
2023-05-21T04:15:19.215Z,1002.22
2023-05-21T04:16:20.593Z,1002.24
2023-05-21T04:17:19.956Z,1002.26
2023-05-21T04:18:20.211Z,1002.28
2023-05-21T04:19:22.439Z,1002.24
2023-05-21T04:20:22.620Z,1002.27
2023-05-21T04:21:20.812Z,1002.29
2023-05-21T04:22:21.198Z,1002.30
2023-05-21T04:23:23.956Z,1002.27
2023-05-21T04:24:24.231Z,1002.25
2023-05-21T04:25:23.279Z,1002.30
2023-05-21T04:26:22.075Z,1002.25
2023-05-21T04:27:22.493Z,1002.25
2023-05-21T04:28:25.222Z,1002.24
2023-05-21T04:29:22.972Z,1002.24
2023-05-21T04:30:23.180Z,1002.23
2023-05-21T04:31:25.443Z,1002.26
2023-05-21T04:32:25.515Z,1002.25
2023-05-21T04:33:26.314Z,1002.27
2023-05-21T04:34:27.557Z,1002.29
2023-05-21T04:35:25.833Z,1002.30
2023-05-21T04:36:24.665Z,1002.35
2023-05-21T04:37:26.649Z,1002.29
2023-05-21T04:38:24.884Z,1002.34
2023-05-21T04:39:27.526Z,1002.31
2023-05-21T04:40:25.346Z,1002.31
2023-05-21T04:41:26.518Z,1002.33
2023-05-21T04:42:25.797Z,1002.34
2023-05-21T04:43:28.446Z,1002.36
2023-05-21T04:44:28.710Z,1002.28
2023-05-21T04:45:26.349Z,1002.35
2023-05-21T04:46:27.514Z,1002.30
2023-05-21T04:47:26.797Z,1002.30
2023-05-21T04:48:29.457Z,1002.35
2023-05-21T04:49:27.134Z,1002.36
2023-05-21T04:50:29.883Z,1002.30
2023-05-21T04:51:28.490Z,1002.29
2023-05-21T04:52:30.153Z,1002.25
2023-05-21T04:53:30.408Z,1002.27
2023-05-21T04:54:30.593Z,1002.32
2023-05-21T04:55:28.305Z,1002.26
2023-05-21T04:56:28.523Z,1002.23
2023-05-21T04:57:29.815Z,1002.25
2023-05-21T04:58:31.480Z,1002.24
2023-05-21T04:59:31.591Z,1002.28
2023-05-21T05:00:29.320Z,1002.18
2023-05-21T05:01:31.612Z,1002.18
2023-05-21T05:02:30.002Z,1002.23
2023-05-21T05:03:30.353Z,1002.20
2023-05-21T05:05:17.380Z,1002.17
2023-05-21T05:05:34.157Z,1002.12
2023-05-21T05:06:36.710Z,1002.14
2023-05-21T05:07:37.522Z,1002.13
2023-05-21T05:08:35.175Z,1002.20
2023-05-21T05:09:35.636Z,1002.18
2023-05-21T05:10:36.341Z,1002.20
2023-05-21T05:11:35.570Z,1002.14
2023-05-21T05:12:38.391Z,1002.12
2023-05-21T05:13:36.218Z,1002.13
2023-05-21T05:14:36.580Z,1002.17
2023-05-21T05:15:38.406Z,1002.13
2023-05-21T05:16:37.479Z,1002.13
2023-05-21T05:17:39.536Z,1002.12
2023-05-21T05:18:38.850Z,1002.15
2023-05-21T05:19:40.532Z,1002.12
2023-05-21T05:20:38.337Z,1002.12
2023-05-21T05:21:38.684Z,1002.10
2023-05-21T05:22:40.775Z,1002.07
2023-05-21T05:23:38.990Z,1002.03
2023-05-21T05:24:40.187Z,1002.12
2023-05-21T05:25:39.662Z,1002.05
2023-05-21T05:26:41.653Z,1002.04
2023-05-21T05:27:39.794Z,1002.10
2023-05-21T05:28:41.072Z,1002.08
2023-05-21T05:29:42.234Z,1002.14
2023-05-21T05:30:42.490Z,1002.12
2023-05-21T05:31:40.750Z,1002.10
2023-05-21T05:32:42.456Z,1002.12
2023-05-21T05:33:41.342Z,1002.06
2023-05-21T05:34:49.598Z,1002.06
2023-05-21T05:35:43.322Z,1002.09
2023-05-21T05:36:44.552Z,1002.09
2023-05-21T05:37:43.216Z,1002.05
2023-05-21T05:38:42.388Z,1002.00
2023-05-21T05:39:42.665Z,1002.06
2023-05-21T05:40:44.666Z,1002.09
2023-05-21T05:41:45.376Z,1002.06
2023-05-21T05:42:45.547Z,1002.05
2023-05-21T05:43:43.336Z,1002.01
2023-05-21T05:44:45.999Z,1002.05
2023-05-21T05:45:46.777Z,1002.05
2023-05-21T05:46:46.689Z,1002.09
2023-05-21T05:47:46.997Z,1002.05
2023-05-21T05:48:44.784Z,1002.10
2023-05-21T05:49:45.010Z,1002.16
2023-05-21T05:50:45.345Z,1002.14
2023-05-21T05:51:45.626Z,1002.16
2023-05-21T05:52:45.885Z,1002.09
2023-05-21T05:53:46.266Z,1002.13
2023-05-21T05:54:46.580Z,1002.12
2023-05-21T05:55:47.761Z,1002.15
2023-05-21T05:56:48.110Z,1002.14
2023-05-21T05:57:47.305Z,1002.14
2023-05-21T05:58:49.566Z,1002.16
2023-05-21T05:59:50.502Z,1002.15
2023-05-21T06:00:50.182Z,1002.17
2023-05-21T06:01:51.434Z,1002.14
2023-05-21T06:02:48.635Z,1002.15
2023-05-21T06:03:48.977Z,1002.18
2023-05-21T06:04:53.430Z,1002.19
2023-05-21T06:05:51.814Z,1002.15
2023-05-21T06:06:50.047Z,1002.11
2023-05-21T06:07:50.254Z,1002.18
2023-05-21T06:08:50.483Z,1002.15
2023-05-21T06:09:50.644Z,1002.17
2023-05-21T06:10:50.847Z,1002.18
2023-05-21T06:11:53.036Z,1002.16
2023-05-21T06:12:53.045Z,1002.19
2023-05-21T06:13:52.788Z,1002.23
2023-05-21T06:14:54.724Z,1002.16
2023-05-21T06:15:54.404Z,1002.17
2023-05-21T06:16:52.099Z,1002.16
2023-05-21T06:17:54.271Z,1002.18
2023-05-21T06:18:54.104Z,1002.22
2023-05-21T06:19:52.486Z,1002.22
2023-05-21T06:20:52.670Z,1002.23
2023-05-21T06:21:52.924Z,1002.21
2023-05-21T06:22:55.603Z,1002.18
2023-05-21T06:23:55.765Z,1002.14
2023-05-21T06:24:56.965Z,1002.17
2023-05-21T06:25:55.137Z,1002.16
2023-05-21T06:26:53.814Z,1002.16
2023-05-21T06:27:54.022Z,1002.16
2023-05-21T06:28:54.178Z,1002.14
2023-05-21T06:29:56.484Z,1002.22
2023-05-21T06:30:56.527Z,1002.22
2023-05-21T06:31:55.779Z,1002.21
2023-05-21T06:32:55.236Z,1002.24
2023-05-21T06:33:55.308Z,1002.25
2023-05-21T06:34:58.499Z,1002.16
2023-05-21T06:35:57.729Z,1002.18
2023-05-21T06:36:55.435Z,1002.25
2023-05-21T06:37:55.874Z,1002.22
2023-05-21T06:38:57.089Z,1002.21
2023-05-21T06:39:56.289Z,1002.17
2023-05-21T06:40:56.744Z,1002.16
2023-05-21T06:41:56.928Z,1002.16
2023-05-21T06:42:59.702Z,1002.22
2023-05-21T06:44:00.403Z,1002.19
2023-05-21T06:44:59.769Z,1002.18
2023-05-21T06:45:58.103Z,1002.13
2023-05-21T06:47:00.538Z,1002.14
2023-05-21T06:47:58.809Z,1002.08
2023-05-21T06:48:59.101Z,1002.11
2023-05-21T06:49:59.254Z,1002.16
2023-05-21T06:51:01.953Z,1002.09
2023-05-21T06:51:59.707Z,1002.10
2023-05-21T06:53:02.076Z,1002.15
2023-05-21T06:54:00.368Z,1002.24
2023-05-21T06:55:03.066Z,1002.16
2023-05-21T06:56:01.036Z,1002.17
2023-05-21T06:57:01.387Z,1002.22
2023-05-21T06:58:01.610Z,1002.20
2023-05-21T06:59:02.853Z,1002.18
2023-05-21T07:00:03.082Z,1002.19
2023-05-21T07:01:04.156Z,1002.16
2023-05-21T07:02:04.772Z,1002.19
2023-05-21T07:03:02.565Z,1002.18
2023-05-21T07:04:05.416Z,1002.18
2023-05-21T07:05:04.236Z,1002.16
2023-05-21T07:06:05.050Z,1002.19
2023-05-21T07:07:05.001Z,1002.17
2023-05-21T07:08:05.058Z,1002.21
2023-05-21T07:09:05.058Z,1002.14
2023-05-21T07:10:05.178Z,1002.19
2023-05-21T07:11:04.307Z,1002.18
2023-05-21T07:12:04.483Z,1002.17
2023-05-21T07:13:04.595Z,1002.16
2023-05-21T07:14:04.745Z,1002.16
2023-05-21T07:15:04.863Z,1002.15
2023-05-21T07:16:05.093Z,1002.10
2023-05-21T07:17:05.278Z,1002.07
2023-05-21T07:18:06.609Z,1002.07
2023-05-21T07:19:05.910Z,1002.10
2023-05-21T07:20:06.079Z,1002.05
2023-05-21T07:21:08.714Z,1002.09
2023-05-21T07:22:06.418Z,1002.07
2023-05-21T07:23:06.576Z,1002.05
2023-05-21T07:24:06.722Z,1002.08
2023-05-21T07:25:06.979Z,1002.07
2023-05-21T07:26:07.192Z,1002.02
2023-05-21T07:27:17.838Z,1002.05
2023-05-21T07:28:07.302Z,1002.14
2023-05-21T07:29:09.962Z,1002.03
2023-05-21T07:30:09.667Z,1002.01
2023-05-21T07:31:07.941Z,1002.08
2023-05-21T07:32:09.625Z,1002.06
2023-05-21T07:33:08.363Z,1002.04
2023-05-21T07:34:10.073Z,1002.06
2023-05-21T07:35:12.136Z,1002.05
2023-05-21T07:36:08.810Z,1002.04
2023-05-21T07:37:11.033Z,1002.03
2023-05-21T07:38:10.143Z,1002.08
2023-05-21T07:39:11.892Z,1002.06
2023-05-21T07:40:12.012Z,1002.07
2023-05-21T07:41:09.648Z,1002.08
2023-05-21T07:42:11.329Z,1002.03
2023-05-21T07:43:12.722Z,1002.08
2023-05-21T07:44:10.413Z,1002.09
2023-05-21T07:45:10.573Z,1002.02
2023-05-21T07:46:10.910Z,1002.04
2023-05-21T07:47:14.194Z,1001.93
2023-05-21T07:48:13.338Z,1001.94
2023-05-21T07:49:11.557Z,1001.97
2023-05-21T07:50:12.755Z,1001.97
2023-05-21T07:51:11.938Z,1002.01
2023-05-21T07:52:14.556Z,1002.05
2023-05-21T07:53:12.337Z,1001.94
2023-05-21T07:54:15.087Z,1001.97
2023-05-21T07:55:12.724Z,1001.95
2023-05-21T07:56:13.038Z,1001.93
2023-05-21T07:57:13.211Z,1001.96
2023-05-21T07:58:13.392Z,1002.00
2023-05-21T07:59:13.923Z,1001.99
2023-05-21T08:00:13.812Z,1001.98
2023-05-21T08:01:13.961Z,1001.92
2023-05-21T08:02:16.671Z,1002.01
2023-05-21T08:03:17.151Z,1001.94
2023-05-21T08:04:17.111Z,1001.98
2023-05-21T08:05:15.621Z,1001.93
2023-05-21T08:06:16.237Z,1001.92
2023-05-21T08:07:14.920Z,1001.91
2023-05-21T08:08:16.877Z,1001.93
2023-05-21T08:09:15.566Z,1001.85
2023-05-21T08:10:17.734Z,1001.84
2023-05-21T08:11:16.931Z,1001.87
2023-05-21T08:12:16.181Z,1001.88
2023-05-21T08:13:17.557Z,1001.85
2023-05-21T08:14:19.233Z,1001.86
2023-05-21T08:15:16.854Z,1001.88
2023-05-21T08:16:17.170Z,1001.91
2023-05-21T08:17:17.411Z,1001.88
2023-05-21T08:18:18.857Z,1001.83
2023-05-21T08:19:17.609Z,1001.81
2023-05-21T08:20:17.837Z,1001.84
2023-05-21T08:21:20.272Z,1001.92
2023-05-21T08:22:18.465Z,1001.82
2023-05-21T08:23:21.271Z,1001.89
2023-05-21T08:24:20.193Z,1001.86
2023-05-21T08:25:19.350Z,1001.90
2023-05-21T08:26:22.049Z,1001.92
2023-05-21T08:27:20.656Z,1001.89
2023-05-21T08:28:20.791Z,1001.93
2023-05-21T08:29:23.122Z,1001.99
2023-05-21T08:30:22.777Z,1001.96
2023-05-21T08:31:22.906Z,1001.96
2023-05-21T08:32:23.136Z,1001.91
2023-05-21T08:33:21.498Z,1001.93
2023-05-21T08:34:23.814Z,1001.92
2023-05-21T08:35:24.230Z,1001.94
2023-05-21T08:36:24.372Z,1001.89
2023-05-21T08:37:24.590Z,1001.92
2023-05-21T08:38:23.326Z,1001.93
2023-05-21T08:39:22.496Z,1001.88
2023-05-21T08:40:22.706Z,1001.88
2023-05-21T08:41:25.291Z,1001.89
2023-05-21T08:42:35.733Z,1001.86
2023-05-21T08:43:25.871Z,1001.89
2023-05-21T08:44:23.510Z,1001.88
2023-05-21T08:45:25.608Z,1001.80
2023-05-21T08:46:24.661Z,1001.84
2023-05-21T08:47:26.851Z,1001.81
2023-05-21T08:48:24.024Z,1001.84
2023-05-21T08:49:26.360Z,1001.88
2023-05-21T08:50:26.730Z,1001.90
2023-05-21T08:51:24.393Z,1001.95
2023-05-21T08:52:27.022Z,1001.95
2023-05-21T08:53:28.705Z,1001.88
2023-05-21T08:54:25.067Z,1001.85
2023-05-21T08:55:25.232Z,1001.87
2023-05-21T08:56:27.883Z,1001.83
2023-05-21T08:57:27.958Z,1001.84
2023-05-21T08:58:28.054Z,1001.83
2023-05-21T08:59:28.732Z,1001.83
2023-05-21T09:00:25.934Z,1001.79
2023-05-21T09:01:26.628Z,1001.75
2023-05-21T09:02:26.695Z,1001.74
2023-05-21T09:03:26.922Z,1001.75
2023-05-21T09:04:30.924Z,1001.71
2023-05-21T09:05:29.657Z,1001.74
2023-05-21T09:06:30.264Z,1001.69
2023-05-21T09:07:30.161Z,1001.66
2023-05-21T09:08:27.757Z,1001.68
2023-05-21T09:09:27.958Z,1001.68
2023-05-21T09:10:28.184Z,1001.64
2023-05-21T09:11:28.351Z,1001.64
2023-05-21T09:12:28.440Z,1001.65
2023-05-21T09:13:29.736Z,1001.60
2023-05-21T09:14:28.964Z,1001.61
2023-05-21T09:15:30.169Z,1001.55
2023-05-21T09:16:29.339Z,1001.59
2023-05-21T09:17:29.621Z,1001.53
2023-05-21T09:18:29.736Z,1001.55
2023-05-21T09:19:30.271Z,1001.53
2023-05-21T09:20:30.806Z,1001.60
2023-05-21T09:21:29.968Z,1001.58
2023-05-21T09:22:30.091Z,1001.61
2023-05-21T09:23:30.231Z,1001.55
2023-05-21T09:24:32.501Z,1001.52
2023-05-21T09:25:32.754Z,1001.53
2023-05-21T09:26:30.404Z,1001.60
2023-05-21T09:27:32.998Z,1001.56
2023-05-21T09:28:33.084Z,1001.57
2023-05-21T09:29:34.215Z,1001.54
2023-05-21T09:30:33.302Z,1001.54
2023-05-21T09:31:32.079Z,1001.53
2023-05-21T09:32:34.233Z,1001.52
2023-05-21T09:33:32.119Z,1001.47
2023-05-21T09:34:32.962Z,1001.47
2023-05-21T09:35:34.877Z,1001.50
2023-05-21T09:36:36.330Z,1001.49
2023-05-21T09:37:32.427Z,1001.50
2023-05-21T09:38:32.560Z,1001.45
2023-05-21T09:39:32.699Z,1001.46
2023-05-21T09:40:32.791Z,1001.44
2023-05-21T09:41:32.935Z,1001.50
2023-05-21T09:42:35.515Z,1001.45
2023-05-21T09:43:33.130Z,1001.46
2023-05-21T09:44:35.755Z,1001.45
2023-05-21T09:45:36.020Z,1001.46
2023-05-21T09:46:36.329Z,1001.41
2023-05-21T09:47:36.447Z,1001.42
2023-05-21T09:48:36.555Z,1001.46
2023-05-21T09:49:35.679Z,1001.48
2023-05-21T09:50:35.473Z,1001.43
2023-05-21T09:51:36.153Z,1001.43
2023-05-21T09:52:34.348Z,1001.45
2023-05-21T09:53:36.945Z,1001.40
2023-05-21T09:54:34.721Z,1001.40
2023-05-21T09:55:34.818Z,1001.41
2023-05-21T09:56:34.993Z,1001.36
2023-05-21T09:57:35.109Z,1001.35
2023-05-21T09:58:35.302Z,1001.34
2023-05-21T09:59:35.427Z,1001.32
2023-05-21T10:00:38.212Z,1001.32
2023-05-21T10:01:35.907Z,1001.29
2023-05-21T10:02:36.130Z,1001.29
2023-05-21T10:03:39.247Z,1001.34
2023-05-21T10:04:38.561Z,1001.31
2023-05-21T10:05:39.224Z,1001.31
2023-05-21T10:06:38.502Z,1001.31
2023-05-21T10:07:39.608Z,1001.24
2023-05-21T10:08:39.681Z,1001.24
2023-05-21T10:09:39.762Z,1001.22
2023-05-21T10:10:39.857Z,1001.19
2023-05-21T10:11:37.609Z,1001.27
2023-05-21T10:12:39.732Z,1001.25
2023-05-21T10:13:40.386Z,1001.22
2023-05-21T10:14:40.517Z,1001.17
2023-05-21T10:15:39.817Z,1001.18
2023-05-21T10:16:39.897Z,1001.12
2023-05-21T10:17:38.580Z,1001.20
2023-05-21T10:18:38.736Z,1001.10
2023-05-21T10:19:38.898Z,1001.08
2023-05-21T10:20:39.687Z,1001.11
2023-05-21T10:21:39.356Z,1001.04
2023-05-21T10:22:40.434Z,1001.09
2023-05-21T10:23:42.048Z,1001.06
2023-05-21T10:24:42.210Z,1001.06
2023-05-21T10:25:42.320Z,1001.08
2023-05-21T10:26:39.964Z,1001.08
2023-05-21T10:27:40.087Z,1001.07
2023-05-21T10:28:41.204Z,1001.02
2023-05-21T10:29:40.318Z,1001.03
2023-05-21T10:30:40.503Z,1001.03
2023-05-21T10:31:41.679Z,1001.04
2023-05-21T10:32:40.883Z,1001.04
2023-05-21T10:33:43.512Z,1001.01
2023-05-21T10:34:42.090Z,1000.97
2023-05-21T10:35:42.770Z,1001.01
2023-05-21T10:36:42.861Z,1001.00
2023-05-21T10:37:41.498Z,1000.98
2023-05-21T10:38:44.757Z,1000.99
2023-05-21T10:39:44.911Z,1000.98
2023-05-21T10:40:42.025Z,1000.99
2023-05-21T10:41:42.205Z,1000.99
2023-05-21T10:42:42.361Z,1001.00
2023-05-21T10:43:42.513Z,1000.94
2023-05-21T10:44:43.839Z,1000.92
2023-05-21T10:45:45.000Z,1000.88
2023-05-21T10:46:43.315Z,1000.93
2023-05-21T10:47:45.910Z,1000.91
2023-05-21T10:48:43.612Z,1000.91
2023-05-21T10:49:43.759Z,1000.92
2023-05-21T10:50:44.899Z,1000.90
2023-05-21T10:51:45.643Z,1000.88
2023-05-21T10:52:44.290Z,1000.85
2023-05-21T10:53:47.966Z,1000.86
2023-05-21T10:54:44.631Z,1000.85
2023-05-21T10:55:44.716Z,1000.89
2023-05-21T10:56:44.878Z,1000.86
2023-05-21T10:57:46.074Z,1000.83
2023-05-21T10:58:45.191Z,1000.84
2023-05-21T10:59:49.719Z,1000.84
2023-05-21T11:00:48.661Z,1000.81
2023-05-21T11:01:46.512Z,1000.77
2023-05-21T11:02:46.729Z,1000.77
2023-05-21T11:03:46.107Z,1000.75
2023-05-21T11:05:48.172Z,1000.77
2023-05-21T11:07:46.948Z,1000.76
2023-05-21T11:08:48.091Z,1000.73
2023-05-21T11:09:48.419Z,1000.73
2023-05-21T11:10:47.587Z,1000.77
2023-05-21T11:11:50.257Z,1000.76
2023-05-21T11:12:51.001Z,1000.74
2023-05-21T11:13:48.291Z,1000.70
2023-05-21T11:14:51.354Z,1000.74
2023-05-21T11:15:49.926Z,1000.76
2023-05-21T11:16:48.598Z,1000.68
2023-05-21T11:17:51.772Z,1000.66
2023-05-21T11:18:51.462Z,1000.71
2023-05-21T11:19:49.041Z,1000.69
2023-05-21T11:20:49.135Z,1000.62
2023-05-21T11:21:49.203Z,1000.65
2023-05-21T11:22:49.357Z,1000.66
2023-05-21T11:23:51.980Z,1000.65
2023-05-21T11:24:51.648Z,1000.64
2023-05-21T11:25:49.976Z,1000.56
2023-05-21T11:26:52.268Z,1000.64
2023-05-21T11:27:50.449Z,1000.56
2023-05-21T11:28:53.036Z,1000.61
2023-05-21T11:29:51.758Z,1000.61
2023-05-21T11:30:51.825Z,1000.63
2023-05-21T11:31:54.110Z,1000.65
2023-05-21T11:32:53.854Z,1000.65
2023-05-21T11:33:53.511Z,1000.62
2023-05-21T11:35:04.391Z,1000.60
2023-05-21T11:35:54.549Z,1000.63
2023-05-21T11:36:52.140Z,1000.62
2023-05-21T11:37:52.320Z,1000.57
2023-05-21T11:38:52.463Z,1000.63
2023-05-21T11:39:52.629Z,1000.57
2023-05-21T11:40:52.742Z,1000.59
2023-05-21T11:41:55.866Z,1000.57
2023-05-21T11:42:54.202Z,1000.59
2023-05-21T11:43:54.923Z,1000.57
2023-05-21T11:44:54.697Z,1000.58
2023-05-21T11:45:53.823Z,1000.61
2023-05-21T11:46:55.506Z,1000.59
2023-05-21T11:47:56.273Z,1000.54
2023-05-21T11:48:58.325Z,1000.52
2023-05-21T11:49:54.456Z,1000.58
2023-05-21T11:50:54.569Z,1000.60
2023-05-21T11:51:54.695Z,1000.57
2023-05-21T11:52:54.976Z,1000.55
2023-05-21T11:53:56.154Z,1000.52
2023-05-21T11:54:58.344Z,1000.51
2023-05-21T11:55:58.076Z,1000.53
2023-05-21T11:56:55.868Z,1000.47
2023-05-21T11:57:56.062Z,1000.51
2023-05-21T11:58:56.239Z,1000.51
2023-05-21T11:59:58.284Z,1000.48
2023-05-21T12:00:56.390Z,1000.44
2023-05-21T12:01:56.474Z,1000.49
2023-05-21T12:02:57.613Z,1000.44
2023-05-21T12:03:57.127Z,1000.46
2023-05-21T12:05:03.020Z,1000.54
2023-05-21T12:05:57.805Z,1000.41
2023-05-21T12:06:58.951Z,1000.53
2023-05-21T12:08:00.011Z,1000.45
2023-05-21T12:08:58.345Z,1000.45
2023-05-21T12:09:58.243Z,1000.45
2023-05-21T12:10:59.952Z,1000.46
2023-05-21T12:12:01.700Z,1000.43
2023-05-21T12:13:00.790Z,1000.47
2023-05-21T12:14:00.194Z,1000.44
2023-05-21T12:14:58.858Z,1000.45
2023-05-21T12:16:01.481Z,1000.47
2023-05-21T12:16:59.100Z,1000.48
2023-05-21T12:17:59.274Z,1000.42
2023-05-21T12:19:00.380Z,1000.45
2023-05-21T12:20:01.496Z,1000.46
2023-05-21T12:20:59.746Z,1000.44
2023-05-21T12:22:02.362Z,1000.45
2023-05-21T12:23:03.496Z,1000.48
2023-05-21T12:24:01.058Z,1000.42
2023-05-21T12:25:00.200Z,1000.50
2023-05-21T12:26:00.410Z,1000.49
2023-05-21T12:27:01.961Z,1000.42
2023-05-21T12:28:00.652Z,1000.41
2023-05-21T12:29:01.763Z,1000.46
2023-05-21T12:30:00.872Z,1000.46
2023-05-21T12:31:01.199Z,1000.50